Time,TemperatureF,DewpointF,PressureIn,WindDirection,WindDirectionDegrees,WindSpeedMPH,WindSpeedGustMPH,Humidity,HourlyPrecipIn,Conditions,Clouds,dailyrainin,SoftwareType,DateUTC
2013-04-03 00:00:00,50.9,44.6,30.02,East,88,9.0,16.0,79,0.00,,SKC,0.01,VWS V14.01,2013-04-03 05:00:00,
2013-04-03 00:05:00,51.0,44.7,30.01,ESE,103,9.0,14.0,79,0.00,,SKC,0.00,VWS V14.01,2013-04-03 05:05:00,
2013-04-03 00:14:00,51.3,45.0,30.01,ESE,117,1.0,14.0,79,0.00,,SKC,0.00,VWS V14.01,2013-04-03 05:14:00,
2013-04-03 00:20:00,51.4,45.1,30.01,East,101,7.0,14.0,79,0.00,,SKC,0.00,VWS V14.01,2013-04-03 05:20:00,
2013-04-03 00:26:00,51.5,45.2,30.00,ESE,109,9.0,14.0,79,0.00,,SKC,0.00,VWS V14.01,2013-04-03 05:26:00,
2013-04-03 00:30:00,51.5,45.2,30.00,East,101,9.0,14.0,79,0.00,,SKC,0.00,VWS V14.01,2013-04-03 05:30:00,
2013-04-03 00:32:00,51.6,45.3,30.00,East,91,10.0,12.0,79,0.00,,SKC,0.00,VWS V14.01,2013-04-03 05:32:00,
2013-04-03 00:38:00,51.6,45.3,29.99,SE,124,8.0,17.0,79,0.00,,SKC,0.00,VWS V14.01,2013-04-03 05:38:00,
2013-04-03 00:44:00,51.4,45.5,29.99,East,84,6.0,17.0,80,0.00,,SKC,0.00,VWS V14.01,2013-04-03 05:44:00,
2013-04-03 00:50:00,51.5,45.5,29.98,East,98,11.0,18.0,80,0.00,,SKC,0.00,VWS V14.01,2013-04-03 05:50:00,
2013-04-03 00:56:00,51.4,45.8,29.98,East,83,9.0,18.0,81,0.00,,SKC,0.00,VWS V14.01,2013-04-03 05:56:00,
2013-04-03 01:00:00,51.5,45.9,29.98,ENE,67,7.0,18.0,81,0.00,,SKC,0.00,VWS V14.01,2013-04-03 06:00:00,
2013-04-03 01:02:00,51.4,45.8,29.98,East,101,8.0,11.0,81,0.00,,SKC,0.00,VWS V14.01,2013-04-03 06:02:00,
2013-04-03 01:09:00,51.5,46.2,29.99,SSE,151,8.0,11.0,82,0.00,,SKC,0.00,VWS V14.01,2013-04-03 06:09:00,
2013-04-03 01:15:00,51.6,46.3,29.99,ENE,67,4.0,14.0,82,0.00,,SKC,0.00,VWS V14.01,2013-04-03 06:15:00,
2013-04-03 01:21:00,51.6,46.3,29.99,ESE,109,4.0,14.0,82,0.00,,SKC,0.00,VWS V14.01,2013-04-03 06:21:00,
2013-04-03 01:27:00,51.5,46.5,29.99,SE,131,8.0,14.0,83,0.00,,SKC,0.00,VWS V14.01,2013-04-03 06:27:00,
2013-04-03 01:30:00,51.7,46.7,29.99,East,84,7.0,14.0,83,0.00,,SKC,0.00,VWS V14.01,2013-04-03 06:30:00,
2013-04-03 01:33:00,51.6,46.6,29.99,ENE,75,7.0,10.0,83,0.00,,SKC,0.00,VWS V14.01,2013-04-03 06:33:00,
2013-04-03 01:39:00,51.7,46.7,29.98,East,97,5.0,13.0,83,0.00,,SKC,0.00,VWS V14.01,2013-04-03 06:39:00,
2013-04-03 01:45:00,51.7,47.0,29.99,ENE,69,1.0,13.0,84,0.00,,SKC,0.00,VWS V14.01,2013-04-03 06:45:00,
2013-04-03 01:54:00,51.9,47.2,30.00,NE,46,6.0,13.0,84,0.00,,SKC,0.00,VWS V14.01,2013-04-03 06:54:00,
2013-04-03 02:00:00,52.0,47.3,30.03,NNE,27,3.0,13.0,84,0.00,,SKC,0.00,VWS V14.01,2013-04-03 07:00:00,
2013-04-03 02:06:00,52.1,47.1,30.04,NE,41,1.0,6.0,83,0.00,,SKC,0.00,VWS V14.01,2013-04-03 07:06:00,
2013-04-03 02:12:00,52.2,47.2,30.03,NE,40,2.0,7.0,83,0.00,,SKC,0.00,VWS V14.01,2013-04-03 07:12:00,
2013-04-03 02:19:00,52.2,47.2,30.04,NNE,13,3.0,8.0,83,0.00,,SKC,0.00,VWS V14.01,2013-04-03 07:19:00,
2013-04-03 02:25:00,52.3,47.3,30.03,North,11,4.0,8.0,83,0.00,,SKC,0.00,VWS V14.01,2013-04-03 07:25:00,
2013-04-03 02:30:00,52.2,47.5,30.03,NNE,21,3.0,8.0,84,0.00,,SKC,0.00,VWS V14.01,2013-04-03 07:30:00,
2013-04-03 02:31:00,52.2,47.5,30.03,NNE,12,3.0,8.0,84,0.00,,SKC,0.00,VWS V14.01,2013-04-03 07:31:00,
2013-04-03 02:37:00,52.1,47.4,30.03,WNW,297,2.0,5.0,84,0.00,,SKC,0.00,VWS V14.01,2013-04-03 07:37:00,
2013-04-03 02:43:00,52.3,47.6,30.03,NNW,335,2.0,5.0,84,0.00,,SKC,0.00,VWS V14.01,2013-04-03 07:43:00,
2013-04-03 02:49:00,52.2,47.8,30.04,East,94,2.0,5.0,85,0.00,,SKC,0.00,VWS V14.01,2013-04-03 07:49:00,
2013-04-03 02:55:00,51.9,47.5,30.04,NW,315,5.0,8.0,85,0.00,,SKC,0.00,VWS V14.01,2013-04-03 07:55:00,
2013-04-03 03:00:00,52.0,47.3,30.03,NNE,33,5.0,13.0,84,0.00,,SKC,0.00,VWS V14.01,2013-04-03 08:00:00,
2013-04-03 03:01:00,51.5,47.5,30.05,NW,321,2.0,8.0,86,0.00,,SKC,0.00,VWS V14.01,2013-04-03 08:01:00,
2013-04-03 03:07:00,51.1,47.4,30.05,NNE,12,1.0,4.0,87,0.00,,SKC,0.00,VWS V14.01,2013-04-03 08:07:00,
2013-04-03 03:13:00,50.6,46.9,30.05,North,355,6.0,9.0,87,0.00,,SKC,0.00,VWS V14.01,2013-04-03 08:13:00,
2013-04-03 03:19:00,50.1,46.4,30.05,NNW,347,1.0,9.0,87,0.01,,SKC,0.01,VWS V14.01,2013-04-03 08:19:00,
2013-04-03 03:25:00,49.6,46.2,30.05,WNW,288,2.0,9.0,88,0.02,,SKC,0.02,VWS V14.01,2013-04-03 08:25:00,
2013-04-03 03:30:00,49.4,46.3,30.06,WNW,293,1.0,9.0,89,0.04,,SKC,0.04,VWS V14.01,2013-04-03 08:30:00,
2013-04-03 03:31:00,49.4,46.3,30.06,WNW,293,1.0,9.0,89,0.04,,SKC,0.04,VWS V14.01,2013-04-03 08:31:00,
2013-04-03 03:37:00,49.2,46.1,30.06,NNE,19,0.0,6.0,89,0.04,,SKC,0.04,VWS V14.01,2013-04-03 08:37:00,
2013-04-03 03:43:00,49.0,46.2,30.05,NE,36,2.0,6.0,90,0.05,,SKC,0.05,VWS V14.01,2013-04-03 08:43:00,
2013-04-03 03:49:00,48.7,45.9,30.05,NW,315,3.0,6.0,90,0.05,,SKC,0.05,VWS V14.01,2013-04-03 08:49:00,
2013-04-03 03:55:00,48.6,46.1,30.06,WSW,257,1.0,6.0,91,0.05,,SKC,0.05,VWS V14.01,2013-04-03 08:55:00,
2013-04-03 04:00:00,48.6,46.1,30.07,NNE,15,1.0,6.0,91,0.05,,SKC,0.05,VWS V14.01,2013-04-03 09:00:00,
2013-04-03 04:01:00,48.6,46.1,30.07,NNE,15,1.0,6.0,91,0.05,,SKC,0.05,VWS V14.01,2013-04-03 09:01:00,
2013-04-03 04:07:00,48.7,46.2,30.07,NNW,345,1.0,5.0,91,0.05,,SKC,0.05,VWS V14.01,2013-04-03 09:07:00,
2013-04-03 04:13:00,48.7,46.2,30.08,NE,55,1.0,5.0,91,0.05,,SKC,0.05,VWS V14.01,2013-04-03 09:13:00,
2013-04-03 04:19:00,48.8,46.6,30.08,North,355,2.0,5.0,92,0.06,,SKC,0.06,VWS V14.01,2013-04-03 09:19:00,
2013-04-03 04:25:00,48.8,46.6,30.08,NE,45,1.0,5.0,92,0.07,,SKC,0.07,VWS V14.01,2013-04-03 09:25:00,
2013-04-03 04:30:00,49.4,46.3,30.06,WNW,293,1.0,9.0,89,0.04,,SKC,0.04,VWS V14.01,2013-04-03 09:30:00,
2013-04-03 04:31:00,48.8,46.6,30.08,ENE,69,1.0,5.0,92,0.08,,SKC,0.08,VWS V14.01,2013-04-03 09:31:00,
2013-04-03 04:37:00,48.9,46.7,30.09,NE,46,3.0,4.0,92,0.05,,SKC,0.09,VWS V14.01,2013-04-03 09:37:00,
2013-04-03 04:43:00,48.7,46.5,30.08,NE,53,4.0,7.0,92,0.06,,SKC,0.10,VWS V14.01,2013-04-03 09:43:00,
2013-04-03 04:49:00,48.3,46.1,30.08,NNE,25,4.0,7.0,92,0.06,,SKC,0.10,VWS V14.01,2013-04-03 09:49:00,
2013-04-03 04:55:00,48.3,46.1,30.08,NNE,28,2.0,7.0,92,0.06,,SKC,0.10,VWS V14.01,2013-04-03 09:55:00,
2013-04-03 05:00:00,48.3,46.1,30.08,NE,45,2.0,7.0,92,0.06,,SKC,0.10,VWS V14.01,2013-04-03 10:00:00,
2013-04-03 05:01:00,48.3,46.1,30.08,NE,45,2.0,7.0,92,0.06,,SKC,0.10,VWS V14.01,2013-04-03 10:01:00,
2013-04-03 05:07:00,48.3,46.1,30.08,NE,40,2.0,5.0,92,0.05,,SKC,0.10,VWS V14.01,2013-04-03 10:07:00,
2013-04-03 05:13:00,48.3,46.1,30.08,East,87,5.0,5.0,92,0.06,,SKC,0.11,VWS V14.01,2013-04-03 10:13:00,
2013-04-03 05:19:00,48.3,46.4,30.08,East,90,1.0,5.0,93,0.06,,SKC,0.11,VWS V14.01,2013-04-03 10:19:00,
2013-04-03 05:25:00,48.1,46.2,30.07,East,80,1.0,7.0,93,0.06,,SKC,0.11,VWS V14.01,2013-04-03 10:25:00,
2013-04-03 05:30:00,48.1,46.2,30.07,NE,53,1.0,7.0,93,0.06,,SKC,0.11,VWS V14.01,2013-04-03 10:30:00,
2013-04-03 05:31:00,48.1,46.2,30.07,NE,53,2.0,2.0,93,0.04,,SKC,0.12,VWS V14.01,2013-04-03 10:31:00,
2013-04-03 05:38:00,48.0,46.1,30.07,East,88,1.0,6.0,93,0.04,,SKC,0.12,VWS V14.01,2013-04-03 10:38:00,
2013-04-03 05:44:00,47.9,46.0,30.07,East,98,1.0,6.0,93,0.04,,SKC,0.12,VWS V14.01,2013-04-03 10:44:00,
2013-04-03 05:50:00,47.8,45.9,30.06,East,100,6.0,6.0,93,0.05,,SKC,0.13,VWS V14.01,2013-04-03 10:50:00,
2013-04-03 05:56:00,47.7,45.8,30.06,ENE,61,4.0,7.0,93,0.06,,SKC,0.14,VWS V14.01,2013-04-03 10:56:00,
2013-04-03 06:00:00,47.5,45.6,30.06,East,93,6.0,8.0,93,0.06,,SKC,0.14,VWS V14.01,2013-04-03 11:00:00,
2013-04-03 06:01:00,47.5,45.6,30.06,East,93,6.0,8.0,93,0.06,,SKC,0.14,VWS V14.01,2013-04-03 11:01:00,
2013-04-03 06:08:00,47.2,45.3,30.05,East,79,3.0,10.0,93,0.05,,SKC,0.15,VWS V14.01,2013-04-03 11:08:00,
2013-04-03 06:14:00,47.0,45.1,30.04,ESE,105,10.0,14.0,93,0.05,,SKC,0.15,VWS V14.01,2013-04-03 11:14:00,
2013-04-03 06:20:00,46.9,45.0,30.02,East,93,6.0,15.0,93,0.06,,SKC,0.16,VWS V14.01,2013-04-03 11:20:00,
2013-04-03 06:29:00,46.6,44.7,30.01,ENE,59,2.0,18.0,93,0.07,,SKC,0.17,VWS V14.01,2013-04-03 11:29:00,
2013-04-03 06:30:00,46.5,44.6,30.01,SE,127,4.0,18.0,93,0.07,,SKC,0.17,VWS V14.01,2013-04-03 11:30:00,
2013-04-03 06:35:00,46.3,44.4,30.02,East,84,9.0,14.0,93,0.07,,SKC,0.18,VWS V14.01,2013-04-03 11:35:00,
2013-04-03 06:41:00,46.2,44.6,30.02,ENE,69,9.0,14.0,94,0.07,,SKC,0.18,VWS V14.01,2013-04-03 11:41:00,
2013-04-03 06:47:00,46.2,44.6,30.02,NE,42,9.0,14.0,94,0.07,,SKC,0.18,VWS V14.01,2013-04-03 11:47:00,
2013-04-03 06:53:00,46.2,44.6,30.02,ENE,59,5.0,14.0,94,0.07,,SKC,0.18,VWS V14.01,2013-04-03 11:53:00,
2013-04-03 06:59:00,46.2,44.6,30.02,NNE,22,6.0,14.0,94,0.07,,SKC,0.18,VWS V14.01,2013-04-03 11:59:00,
2013-04-03 07:00:00,46.2,44.6,30.02,NE,35,4.0,14.0,94,0.07,,SKC,0.18,VWS V14.01,2013-04-03 12:00:00,
2013-04-03 07:05:00,46.2,44.6,30.03,NE,56,2.0,6.0,94,0.04,,SKC,0.18,VWS V14.01,2013-04-03 12:05:00,
2013-04-03 07:11:00,46.2,44.6,30.03,North,5,3.0,7.0,94,0.04,,SKC,0.18,VWS V14.01,2013-04-03 12:11:00,
2013-04-03 07:17:00,46.1,44.5,30.04,NNE,30,5.0,12.0,94,0.04,,SKC,0.18,VWS V14.01,2013-04-03 12:17:00,
2013-04-03 07:23:00,46.0,44.4,30.05,NNE,31,1.0,12.0,94,0.04,,SKC,0.18,VWS V14.01,2013-04-03 12:23:00,
2013-04-03 07:29:00,45.8,44.2,30.05,NNE,28,3.0,12.0,94,0.04,,SKC,0.18,VWS V14.01,2013-04-03 12:29:00,
2013-04-03 07:30:00,45.8,44.2,30.06,North,355,6.0,12.0,94,0.04,,SKC,0.18,VWS V14.01,2013-04-03 12:30:00,
2013-04-03 07:35:00,45.5,43.9,30.06,ENE,64,4.0,10.0,94,0.01,,SKC,0.18,VWS V14.01,2013-04-03 12:35:00,
2013-04-03 07:41:00,45.5,43.9,30.07,NE,51,9.0,10.0,94,0.01,,SKC,0.18,VWS V14.01,2013-04-03 12:41:00,
2013-04-03 07:47:00,45.4,43.8,30.07,NNE,31,6.0,11.0,94,0.01,,SKC,0.18,VWS V14.01,2013-04-03 12:47:00,
2013-04-03 08:00:00,46.2,44.6,30.02,NE,35,4.0,14.0,94,0.07,,SKC,0.18,VWS V14.01,2013-04-03 13:00:00,
2013-04-03 08:07:00,45.7,44.1,30.10,NNE,31,4.0,7.0,94,0.01,,SKC,0.18,VWS V14.01,2013-04-03 13:07:00,
2013-04-03 08:13:00,45.8,44.2,30.10,NE,41,4.0,7.0,94,0.01,,SKC,0.18,VWS V14.01,2013-04-03 13:13:00,
2013-04-03 08:19:00,45.7,44.1,30.11,East,83,6.0,7.0,94,0.01,,SKC,0.18,VWS V14.01,2013-04-03 13:19:00,
2013-04-03 08:26:00,45.6,43.7,30.11,North,5,2.0,9.0,93,0.01,,SKC,0.18,VWS V14.01,2013-04-03 13:26:00,
2013-04-03 08:30:00,45.4,43.5,30.11,NNE,20,5.0,9.0,93,0.01,,SKC,0.18,VWS V14.01,2013-04-03 13:30:00,
2013-04-03 08:32:00,45.4,43.5,30.11,NNE,28,5.0,5.0,93,0.00,,SKC,0.18,VWS V14.01,2013-04-03 13:32:00,
2013-04-03 08:42:00,45.3,43.7,30.10,NE,37,4.0,7.0,94,0.00,,SKC,0.18,VWS V14.01,2013-04-03 13:42:00,
2013-04-03 08:48:00,45.4,43.8,30.11,NNE,28,4.0,7.0,94,0.00,,SKC,0.18,VWS V14.01,2013-04-03 13:48:00,
2013-04-03 08:54:00,45.3,43.7,30.11,NNE,24,3.0,8.0,94,0.00,,SKC,0.18,VWS V14.01,2013-04-03 13:54:00,
2013-04-03 09:00:00,45.4,43.8,30.11,NNE,26,4.0,8.0,94,0.00,,SKC,0.18,VWS V14.01,2013-04-03 14:00:00,
2013-04-03 09:30:00,45.5,43.6,30.12,NNE,22,4.0,11.0,93,0.00,,SKC,0.18,VWS V14.01,2013-04-03 14:30:00,
2013-04-03 10:00:00,45.9,44.3,30.12,NE,45,4.0,10.0,94,0.00,,SKC,0.18,VWS V14.01,2013-04-03 15:00:00,
2013-04-03 10:30:00,46.4,44.5,30.13,NE,45,5.0,14.0,93,0.00,,SKC,0.18,VWS V14.01,2013-04-03 15:30:00,
2013-04-03 11:00:00,47.0,44.8,30.13,ENE,68,4.0,13.0,92,0.00,,SKC,0.18,VWS V14.01,2013-04-03 16:00:00,
2013-04-03 11:30:00,47.0,44.8,30.13,NNE,22,3.0,9.0,92,0.00,,SKC,0.18,VWS V14.01,2013-04-03 16:30:00,
2013-04-03 12:00:00,47.0,44.8,30.13,ENE,68,4.0,13.0,92,0.00,,SKC,0.18,VWS V14.01,2013-04-03 17:00:00,
2013-04-03 12:30:00,47.6,44.8,30.14,ENE,68,2.0,8.0,90,0.00,,SKC,0.18,VWS V14.01,2013-04-03 17:30:00,
2013-04-03 13:00:00,48.0,44.9,30.13,NNE,22,2.0,7.0,89,0.00,,SKC,0.18,VWS V14.01,2013-04-03 18:00:00,
2013-04-03 13:30:00,48.3,44.6,30.13,NNE,22,2.0,6.0,87,0.00,,SKC,0.18,VWS V14.01,2013-04-03 18:30:00,
2013-04-03 14:00:00,48.0,44.9,30.13,NNE,22,2.0,7.0,89,0.00,,SKC,0.18,VWS V14.01,2013-04-03 19:00:00,
2013-04-03 14:06:00,49.3,45.3,30.13,NE,42,2.0,6.0,86,0.00,,SKC,0.18,VWS V14.01,2013-04-03 19:06:00,
2013-04-03 14:12:00,49.6,45.6,30.13,NE,52,1.0,6.0,86,0.00,,SKC,0.18,VWS V14.01,2013-04-03 19:12:00,
2013-04-03 14:22:00,50.0,45.7,30.13,NE,42,3.0,6.0,85,0.00,,SKC,0.18,VWS V14.01,2013-04-03 19:22:00,
2013-04-03 14:28:00,50.1,45.5,30.13,NNE,33,1.0,6.0,84,0.00,,SKC,0.18,VWS V14.01,2013-04-03 19:28:00,
2013-04-03 14:30:00,48.3,44.6,30.13,NNE,22,2.0,6.0,87,0.00,,SKC,0.18,VWS V14.01,2013-04-03 19:30:00,
2013-04-03 14:34:00,50.3,45.7,30.13,North,355,2.0,5.0,84,0.00,,SKC,0.18,VWS V14.01,2013-04-03 19:34:00,
2013-04-03 14:40:00,50.4,45.8,30.12,NE,44,2.0,5.0,84,0.00,,SKC,0.18,VWS V14.01,2013-04-03 19:40:00,
2013-04-03 14:46:00,50.6,45.6,30.12,ENE,57,2.0,7.0,83,0.00,,SKC,0.18,VWS V14.01,2013-04-03 19:46:00,
2013-04-03 14:52:00,50.7,46.0,30.12,NE,37,2.0,7.0,84,0.00,,SKC,0.18,VWS V14.01,2013-04-03 19:52:00,
2013-04-03 14:58:00,50.9,45.9,30.11,ENE,64,2.0,7.0,83,0.00,,SKC,0.18,VWS V14.01,2013-04-03 19:58:00,
2013-04-03 15:00:00,51.0,46.0,30.11,NNE,26,5.0,7.0,83,0.00,,SKC,0.18,VWS V14.01,2013-04-03 20:00:00,
2013-04-03 15:04:00,51.0,46.0,30.11,ENE,67,3.0,9.0,83,0.00,,SKC,0.18,VWS V14.01,2013-04-03 20:04:00,
2013-04-03 15:10:00,51.1,46.1,30.11,NNE,30,3.0,9.0,83,0.00,,SKC,0.18,VWS V14.01,2013-04-03 20:10:00,
2013-04-03 15:16:00,51.3,46.3,30.10,ENE,73,9.0,9.0,83,0.00,,SKC,0.18,VWS V14.01,2013-04-03 20:16:00,
2013-04-03 15:22:00,51.5,46.2,30.09,NNE,17,2.0,9.0,82,0.00,,SKC,0.18,VWS V14.01,2013-04-03 20:22:00,
2013-04-03 15:29:00,51.6,46.0,30.10,NNE,27,4.0,9.0,81,0.00,,SKC,0.18,VWS V14.01,2013-04-03 20:29:00,
2013-04-03 15:30:00,50.3,46.0,30.13,NNE,26,3.0,6.0,85,0.00,,SKC,0.18,VWS V14.01,2013-04-03 20:30:00,
2013-04-03 15:35:00,51.7,46.1,30.09,NE,38,4.0,9.0,81,0.00,,SKC,0.18,VWS V14.01,2013-04-03 20:35:00,
2013-04-03 15:41:00,51.6,46.0,30.09,NNE,26,3.0,9.0,81,0.00,,SKC,0.18,VWS V14.01,2013-04-03 20:41:00,
2013-04-03 15:47:00,51.7,46.1,30.09,NE,45,3.0,9.0,81,0.00,,SKC,0.18,VWS V14.01,2013-04-03 20:47:00,
2013-04-03 15:53:00,51.9,46.3,30.10,ENE,69,5.0,9.0,81,0.00,,SKC,0.18,VWS V14.01,2013-04-03 20:53:00,
2013-04-03 15:59:00,51.9,45.9,30.10,ENE,71,4.0,9.0,80,0.00,,SKC,0.18,VWS V14.01,2013-04-03 20:59:00,
2013-04-03 16:00:00,51.0,46.0,30.11,NNE,26,5.0,7.0,83,0.00,,SKC,0.18,VWS V14.01,2013-04-03 21:00:00,
2013-04-03 16:05:00,51.9,45.9,30.10,NNE,20,4.0,9.0,80,0.00,,SKC,0.18,VWS V14.01,2013-04-03 21:05:00,
2013-04-03 16:11:00,51.9,45.9,30.10,NNE,28,5.0,9.0,80,0.00,,SKC,0.18,VWS V14.01,2013-04-03 21:11:00,
2013-04-03 16:17:00,52.0,45.7,30.10,NNE,19,6.0,9.0,79,0.00,,SKC,0.18,VWS V14.01,2013-04-03 21:17:00,
2013-04-03 16:27:00,52.1,45.8,30.11,NNE,22,3.0,9.0,79,0.00,,SKC,0.18,VWS V14.01,2013-04-03 21:27:00,
2013-04-03 16:30:00,51.6,46.0,30.09,NE,44,0.0,9.0,81,0.00,,SKC,0.18,VWS V14.01,2013-04-03 21:30:00,
2013-04-03 16:33:00,52.1,45.8,30.11,NNE,19,1.0,4.0,79,0.00,,SKC,0.18,VWS V14.01,2013-04-03 21:33:00,
2013-04-03 16:39:00,52.1,45.8,30.11,North,10,3.0,4.0,79,0.00,,SKC,0.18,VWS V14.01,2013-04-03 21:39:00,
2013-04-03 16:45:00,52.0,45.7,30.12,NE,49,3.0,5.0,79,0.00,,SKC,0.18,VWS V14.01,2013-04-03 21:45:00,
2013-04-03 16:51:00,52.0,45.7,30.12,NE,50,1.0,5.0,79,0.00,,SKC,0.18,VWS V14.01,2013-04-03 21:51:00,
2013-04-03 16:57:00,51.9,45.6,30.12,NW,321,1.0,5.0,79,0.00,,SKC,0.18,VWS V14.01,2013-04-03 21:57:00,
2013-04-03 17:00:00,52.0,46.0,30.10,East,94,5.0,9.0,80,0.00,,SKC,0.18,VWS V14.01,2013-04-03 22:00:00,
2013-04-03 17:03:00,51.8,45.5,30.12,NE,37,5.0,6.0,79,0.00,,SKC,0.18,VWS V14.01,2013-04-03 22:03:00,
2013-04-03 17:09:00,51.7,45.1,30.13,West,276,2.0,7.0,78,0.00,,SKC,0.18,VWS V14.01,2013-04-03 22:09:00,
2013-04-03 17:18:00,51.6,45.3,30.12,NE,49,3.0,7.0,79,0.00,,SKC,0.18,VWS V14.01,2013-04-03 22:18:00,
2013-04-03 17:24:00,51.5,44.9,30.12,NNE,13,4.0,8.0,78,0.00,,SKC,0.18,VWS V14.01,2013-04-03 22:24:00,
2013-04-03 17:30:00,51.5,45.2,30.12,NNE,20,4.0,8.0,79,0.00,,SKC,0.18,VWS V14.01,2013-04-03 22:30:00,
2013-04-03 17:39:00,51.5,44.9,30.12,NNE,22,3.0,8.0,78,0.00,,SKC,0.18,VWS V14.01,2013-04-03 22:39:00,
2013-04-03 17:45:00,51.5,44.9,30.12,NW,306,1.0,8.0,78,0.00,,SKC,0.18,VWS V14.01,2013-04-03 22:45:00,
2013-04-03 17:51:00,51.4,45.1,30.12,NE,34,3.0,8.0,79,0.00,,SKC,0.18,VWS V14.01,2013-04-03 22:51:00,
2013-04-03 17:57:00,51.3,44.7,30.12,NE,42,3.0,8.0,78,0.00,,SKC,0.18,VWS V14.01,2013-04-03 22:57:00,
2013-04-03 18:00:00,51.8,45.5,30.12,North,9,1.0,5.0,79,0.00,,SKC,0.18,VWS V14.01,2013-04-03 23:00:00,
2013-04-03 18:06:00,51.1,44.2,30.12,NNE,18,0.0,7.0,77,0.00,,SKC,0.18,VWS V14.01,2013-04-03 23:06:00,
2013-04-03 18:13:00,51.0,44.4,30.12,NNE,13,4.0,12.0,78,0.00,,SKC,0.18,VWS V14.01,2013-04-03 23:13:00,
2013-04-03 18:22:00,50.9,44.3,30.12,NE,52,1.0,12.0,78,0.00,,SKC,0.18,VWS V14.01,2013-04-03 23:22:00,
2013-04-03 18:28:00,50.8,44.5,30.11,East,95,5.0,12.0,79,0.01,,SKC,0.19,VWS V14.01,2013-04-03 23:28:00,
2013-04-03 18:30:00,51.5,44.9,30.12,North,11,2.0,8.0,78,0.00,,SKC,0.18,VWS V14.01,2013-04-03 23:30:00,
2013-04-03 18:34:00,49.8,44.5,30.10,NNE,22,4.0,10.0,82,0.05,,SKC,0.23,VWS V14.01,2013-04-03 23:34:00,
2013-04-03 18:47:00,48.3,44.6,30.09,NE,48,3.0,10.0,87,0.10,,SKC,0.28,VWS V14.01,2013-04-03 23:47:00,
2013-04-03 18:53:00,47.9,44.5,30.08,ENE,61,7.0,11.0,88,0.12,,SKC,0.30,VWS V14.01,2013-04-03 23:53:00,
2013-04-03 18:59:00,47.8,44.7,30.08,ENE,61,5.0,11.0,89,0.12,,SKC,0.30,VWS V14.01,2013-04-03 23:59:00,
2013-04-03 19:00:00,51.2,44.6,30.12,ENE,62,2.0,9.0,78,0.00,,SKC,0.18,VWS V14.01,2013-04-04 00:00:00,
2013-04-03 19:05:00,47.6,44.5,30.08,East,91,7.0,10.0,89,0.13,,SKC,0.31,VWS V14.01,2013-04-04 00:05:00,
2013-04-03 19:14:00,47.4,44.6,30.08,ENE,62,4.0,10.0,90,0.14,,SKC,0.32,VWS V14.01,2013-04-04 00:14:00,
2013-04-03 19:20:00,47.3,44.5,30.08,NE,53,5.0,10.0,90,0.14,,SKC,0.32,VWS V14.01,2013-04-04 00:20:00,
2013-04-03 19:26:00,47.2,44.7,30.12,NNE,28,0.0,10.0,91,0.14,,SKC,0.32,VWS V14.01,2013-04-04 00:26:00,
2013-04-03 19:30:00,50.4,44.8,30.09,NE,53,4.0,12.0,81,0.02,,SKC,0.20,VWS V14.01,2013-04-04 00:30:00,
2013-04-03 19:32:00,47.4,44.9,30.13,NNW,330,0.0,2.0,91,0.13,,SKC,0.33,VWS V14.01,2013-04-04 00:32:00,
2013-04-03 19:38:00,47.4,44.9,30.14,NNW,331,0.0,3.0,91,0.14,,SKC,0.34,VWS V14.01,2013-04-04 00:38:00,
2013-04-03 19:44:00,47.3,44.8,30.14,NW,319,0.0,5.0,91,0.15,,SKC,0.35,VWS V14.01,2013-04-04 00:44:00,
2013-04-03 19:50:00,47.2,44.7,30.13,NE,43,2.0,5.0,91,0.17,,SKC,0.37,VWS V14.01,2013-04-04 00:50:00,
2013-04-03 19:56:00,47.2,44.7,30.11,NNE,26,4.0,6.0,91,0.18,,SKC,0.38,VWS V14.01,2013-04-04 00:56:00,
2013-04-03 20:00:00,47.7,44.6,30.08,East,84,8.0,11.0,89,0.13,,SKC,0.31,VWS V14.01,2013-04-04 01:00:00,
2013-04-03 20:02:00,47.2,44.7,30.12,North,10,2.0,3.0,91,0.09,,SKC,0.40,VWS V14.01,2013-04-04 01:02:00,
2013-04-03 20:08:00,47.0,44.8,30.13,North,5,1.0,5.0,92,0.10,,SKC,0.41,VWS V14.01,2013-04-04 01:08:00,
2013-04-03 20:14:00,47.1,44.9,30.14,NW,319,2.0,5.0,92,0.11,,SKC,0.42,VWS V14.01,2013-04-04 01:14:00,
2013-04-03 20:20:00,47.2,45.0,30.14,NNW,332,1.0,5.0,92,0.12,,SKC,0.43,VWS V14.01,2013-04-04 01:20:00,
2013-04-03 20:26:00,47.3,45.1,30.13,NNW,343,0.0,5.0,92,0.13,,SKC,0.44,VWS V14.01,2013-04-04 01:26:00,
2013-04-03 20:30:00,47.3,44.8,30.13,NW,313,1.0,10.0,91,0.15,,SKC,0.33,VWS V14.01,2013-04-04 01:30:00,
2013-04-03 20:32:00,47.2,45.0,30.14,North,360,0.0,1.0,92,0.13,,SKC,0.46,VWS V14.01,2013-04-04 01:32:00,
2013-04-03 20:39:00,47.3,45.4,30.15,NNW,333,0.0,2.0,93,0.14,,SKC,0.47,VWS V14.01,2013-04-04 01:39:00,
2013-04-03 20:48:00,47.2,45.0,30.14,NNW,341,1.0,4.0,92,0.15,,SKC,0.48,VWS V14.01,2013-04-04 01:48:00,
2013-04-03 20:54:00,47.0,44.8,30.15,NW,313,7.0,7.0,92,0.17,,SKC,0.50,VWS V14.01,2013-04-04 01:54:00,
2013-04-03 21:00:00,46.8,44.6,30.15,ENE,58,1.0,7.0,92,0.17,,SKC,0.50,VWS V14.01,2013-04-04 02:00:00,
2013-04-03 21:06:00,46.7,44.5,30.16,NNE,24,1.0,3.0,92,0.10,,SKC,0.50,VWS V14.01,2013-04-04 02:06:00,
2013-04-03 21:12:00,46.6,44.4,30.16,NE,39,3.0,4.0,92,0.10,,SKC,0.50,VWS V14.01,2013-04-04 02:12:00,
2013-04-03 21:18:00,46.7,44.5,30.17,NNE,30,0.0,6.0,92,0.10,,SKC,0.50,VWS V14.01,2013-04-04 02:18:00,
2013-04-03 21:24:00,46.7,44.5,30.17,NE,40,0.0,6.0,92,0.10,,SKC,0.50,VWS V14.01,2013-04-04 02:24:00,
2013-04-03 21:30:00,46.8,44.6,30.17,NE,40,0.0,6.0,92,0.10,,SKC,0.50,VWS V14.01,2013-04-04 02:30:00,
2013-04-03 21:37:00,46.9,44.7,30.17,NNE,21,1.0,2.0,92,0.04,,SKC,0.50,VWS V14.01,2013-04-04 02:37:00,
2013-04-03 21:43:00,46.9,44.7,30.17,NNE,13,1.0,3.0,92,0.04,,SKC,0.50,VWS V14.01,2013-04-04 02:43:00,
2013-04-03 21:49:00,46.8,44.6,30.18,NNE,18,2.0,4.0,92,0.04,,SKC,0.50,VWS V14.01,2013-04-04 02:49:00,
2013-04-03 21:55:00,46.8,44.6,30.18,North,5,1.0,4.0,92,0.04,,SKC,0.50,VWS V14.01,2013-04-04 02:55:00,
2013-04-03 22:00:00,46.8,44.6,30.15,ENE,58,1.0,7.0,92,0.17,,SKC,0.50,VWS V14.01,2013-04-04 03:00:00,
2013-04-03 22:01:00,46.7,44.5,30.18,NNW,346,2.0,4.0,92,0.04,,SKC,0.50,VWS V14.01,2013-04-04 03:01:00,
2013-04-03 22:07:00,46.6,44.4,30.18,NNE,33,1.0,3.0,92,0.00,,SKC,0.50,VWS V14.01,2013-04-04 03:07:00,
2013-04-03 22:13:00,46.5,44.3,30.19,ENE,66,2.0,3.0,92,0.00,,SKC,0.50,VWS V14.01,2013-04-04 03:13:00,
2013-04-03 22:19:00,46.5,44.3,30.19,NE,54,0.0,3.0,92,0.01,,SKC,0.51,VWS V14.01,2013-04-04 03:19:00,
2013-04-03 22:25:00,46.4,44.2,30.19,ENE,58,2.0,3.0,92,0.01,,SKC,0.51,VWS V14.01,2013-04-04 03:25:00,
2013-04-03 22:30:00,46.8,44.6,30.17,NE,40,0.0,6.0,92,0.10,,SKC,0.50,VWS V14.01,2013-04-04 03:30:00,
2013-04-03 22:31:00,46.4,44.2,30.20,ENE,58,1.0,3.0,92,0.01,,SKC,0.51,VWS V14.01,2013-04-04 03:31:00,
2013-04-03 22:37:00,46.4,44.2,30.18,East,94,3.0,5.0,92,0.02,,SKC,0.52,VWS V14.01,2013-04-04 03:37:00,
2013-04-03 22:47:00,46.1,43.9,30.18,East,88,5.0,6.0,92,0.02,,SKC,0.52,VWS V14.01,2013-04-04 03:47:00,
2013-04-03 22:53:00,46.1,43.9,30.18,ENE,73,0.0,6.0,92,0.02,,SKC,0.52,VWS V14.01,2013-04-04 03:53:00,
2013-04-03 22:59:00,46.0,43.8,30.19,ENE,75,0.0,6.0,92,0.02,,SKC,0.52,VWS V14.01,2013-04-04 03:59:00,
2013-04-03 23:00:00,46.7,44.5,30.18,NNW,346,2.0,4.0,92,0.04,,SKC,0.50,VWS V14.01,2013-04-04 04:00:00,
2013-04-03 23:02:00,46.0,43.8,30.19,ENE,75,1.0,1.0,92,0.02,,SKC,0.52,VWS V14.01,2013-04-04 04:02:00,
2013-04-03 23:05:00,46.0,43.8,30.19,ENE,75,1.0,2.0,92,0.02,,SKC,0.52,VWS V14.01,2013-04-04 04:05:00,
2013-04-03 23:08:00,46.0,43.8,30.19,ENE,75,0.0,2.0,92,0.02,,SKC,0.52,VWS V14.01,2013-04-04 04:08:00,
2013-04-03 23:14:00,46.0,44.1,30.19,ENE,75,0.0,2.0,93,0.03,,SKC,0.53,VWS V14.01,2013-04-04 04:14:00,
2013-04-03 23:20:00,46.0,44.1,30.19,ENE,75,0.0,2.0,93,0.03,,SKC,0.53,VWS V14.01,2013-04-04 04:20:00,
2013-04-03 23:29:00,46.0,44.1,30.19,ENE,75,0.0,2.0,93,0.03,,SKC,0.53,VWS V14.01,2013-04-04 04:29:00,
2013-04-03 23:30:00,46.4,44.2,30.20,ENE,58,1.0,3.0,92,0.01,,SKC,0.51,VWS V14.01,2013-04-04 04:30:00,
2013-04-03 23:35:00,45.9,44.0,30.19,ENE,75,0.0,1.0,93,0.03,,SKC,0.54,VWS V14.01,2013-04-04 04:35:00,
2013-04-03 23:38:00,45.9,44.0,30.19,ENE,75,0.0,1.0,93,0.03,,SKC,0.54,VWS V14.01,2013-04-04 04:38:00,
2013-04-03 23:44:00,45.9,44.0,30.19,ENE,75,0.0,1.0,93,0.03,,SKC,0.54,VWS V14.01,2013-04-04 04:44:00,
2013-04-03 23:50:00,45.9,44.0,30.19,ENE,75,0.0,1.0,93,0.03,,SKC,0.54,VWS V14.01,2013-04-04 04:50:00,
2013-04-03 23:56:00,45.9,44.0,30.20,ENE,75,0.0,1.0,93,0.03,,SKC,0.54,VWS V14.01,2013-04-04 04:56:00,